Time;durP1;ratioP1;P1;durP2;ratioP2;P2;SDS_P1;SDS_P2;PMS_P1;PMS_P2;Temp;Humidity;BMP_temperature;BMP_pressure;BME280_temperature;BME280_humidity;BME280_pressure;Samples;Min_cycle;Max_cycle;Signal;HPM_P1;HPM_P2
2023/11/05 00:00:51;;;;;;;3.17;1.60;;;13.00;99.90;;;;;;5042641;28;20175;-70
2023/11/05 00:03:17;;;;;;;3.93;1.50;;;13.10;99.90;;;;;;5046863;28;20545;-70
2023/11/05 00:05:42;;;;;;;4.57;1.37;;;13.00;99.90;;;;;;5042579;28;20199;-69
2023/11/05 00:08:08;;;;;;;3.20;1.67;;;13.00;99.90;;;;;;5048212;28;20454;-69
2023/11/05 00:10:34;;;;;;;2.73;1.40;;;13.10;99.90;;;;;;5045945;28;20558;-70
2023/11/05 00:12:59;;;;;;;2.40;1.20;;;13.10;99.90;;;;;;5046625;28;20601;-69
2023/11/05 00:15:26;;;;;;;3.10;1.33;;;13.10;99.90;;;;;;5049116;28;20434;-69
2023/11/05 00:17:51;;;;;;;3.03;1.33;;;13.10;99.90;;;;;;5052429;28;20179;-68
2023/11/05 00:20:17;;;;;;;5.00;1.77;;;13.20;99.90;;;;;;5037981;28;20434;-68
2023/11/05 00:22:43;;;;;;;2.60;1.40;;;13.20;99.90;;;;;;5042147;28;20211;-68
2023/11/05 00:25:09;;;;;;;2.07;1.40;;;13.20;99.90;;;;;;5043404;28;20429;-69
2023/11/05 00:27:36;;;;;;;2.37;1.20;;;13.30;99.90;;;;;;5037082;28;20194;-68
2023/11/05 00:30:02;;;;;;;2.37;1.17;;;13.20;99.90;;;;;;5041754;28;20508;-69
2023/11/05 00:32:28;;;;;;;6.20;1.20;;;13.30;99.90;;;;;;5045722;28;20547;-69
2023/11/05 00:34:53;;;;;;;3.70;1.60;;;13.20;99.90;;;;;;5042135;28;20262;-69
2023/11/05 00:37:19;;;;;;;2.30;1.60;;;13.20;99.90;;;;;;5046993;28;20210;-69
2023/11/05 00:39:44;;;;;;;6.63;1.37;;;13.30;99.90;;;;;;5045187;28;20267;-69
2023/11/05 00:42:10;;;;;;;2.93;1.40;;;13.30;99.90;;;;;;5036257;28;20187;-70
2023/11/05 00:44:36;;;;;;;4.50;1.60;;;13.30;99.90;;;;;;5042849;28;20634;-69
2023/11/05 00:47:01;;;;;;;2.67;1.30;;;13.30;99.90;;;;;;5043370;28;20192;-70
2023/11/05 00:49:27;;;;;;;8.90;1.30;;;13.40;99.90;;;;;;5037706;28;20260;-68
2023/11/05 00:51:52;;;;;;;2.10;1.33;;;13.40;99.90;;;;;;5045127;28;20215;-69
2023/11/05 00:54:18;;;;;;;3.47;1.33;;;13.40;99.90;;;;;;5047416;28;20203;-69
2023/11/05 00:56:43;;;;;;;2.20;1.30;;;13.50;99.90;;;;;;5040341;28;20716;-69
2023/11/05 00:59:09;;;;;;;5.10;1.80;;;13.40;99.90;;;;;;5038827;28;20614;-68
2023/11/05 01:01:35;;;;;;;5.60;1.50;;;13.50;99.90;;;;;;5031564;28;20297;-69
2023/11/05 01:04:00;;;;;;;3.80;2.10;;;13.50;99.90;;;;;;5044840;28;20808;-69
2023/11/05 01:06:26;;;;;;;6.47;1.37;;;13.60;99.90;;;;;;5045701;28;20697;-69
2023/11/05 01:08:51;;;;;;;3.53;1.73;;;13.70;99.90;;;;;;5043615;28;20195;-69
2023/11/05 01:11:17;;;;;;;2.50;1.43;;;13.70;99.90;;;;;;5045661;28;20344;-69
2023/11/05 01:13:42;;;;;;;2.87;1.63;;;13.80;99.90;;;;;;5043493;28;20281;-70
2023/11/05 01:16:09;;;;;;;3.30;1.87;;;13.90;99.90;;;;;;5039760;28;20548;-70
2023/11/05 01:18:34;;;;;;;5.43;1.47;;;13.90;99.90;;;;;;5042475;28;20203;-69
2023/11/05 01:21:00;;;;;;;6.17;2.00;;;13.90;99.90;;;;;;5048386;28;20438;-69
2023/11/05 01:23:26;;;;;;;3.43;1.40;;;13.90;99.90;;;;;;5051901;28;20267;-69
2023/11/05 01:25:51;;;;;;;2.57;1.60;;;14.00;99.90;;;;;;5045265;28;20192;-69
2023/11/05 01:28:17;;;;;;;4.40;1.77;;;14.00;99.90;;;;;;5038981;28;20254;-69
2023/11/05 01:30:43;;;;;;;2.83;1.70;;;14.10;99.90;;;;;;5045252;28;20210;-69
2023/11/05 01:33:08;;;;;;;4.07;1.70;;;14.20;99.90;;;;;;5038604;28;20456;-69
2023/11/05 01:35:34;;;;;;;3.70;1.73;;;14.20;99.90;;;;;;5039905;28;20756;-69
2023/11/05 01:38:00;;;;;;;3.23;1.60;;;14.20;99.90;;;;;;5042767;28;20242;-69
2023/11/05 01:40:25;;;;;;;6.07;2.20;;;14.10;99.90;;;;;;5041467;28;20196;-69
2023/11/05 01:42:52;;;;;;;4.13;2.00;;;14.20;99.90;;;;;;5039537;28;20214;-69
2023/11/05 01:45:18;;;;;;;5.40;1.80;;;14.20;99.90;;;;;;5042162;28;20317;-69
2023/11/05 01:47:43;;;;;;;9.30;1.50;;;14.20;99.90;;;;;;5048770;28;20485;-69
2023/11/05 01:50:11;;;;;;;3.03;1.40;;;14.30;99.90;;;;;;5041827;28;20222;-69
2023/11/05 01:52:36;;;;;;;7.60;2.23;;;14.30;99.90;;;;;;5041031;28;20208;-69
2023/11/05 01:55:03;;;;;;;6.37;1.80;;;14.30;99.90;;;;;;5041451;28;20862;-69
2023/11/05 01:57:29;;;;;;;2.50;1.50;;;14.30;99.90;;;;;;5036888;28;20891;-69
2023/11/05 01:59:55;;;;;;;4.07;1.70;;;14.30;99.90;;;;;;5038780;28;20525;-69
2023/11/05 02:02:22;;;;;;;3.67;1.63;;;14.30;99.90;;;;;;5050891;28;20636;-69
2023/11/05 02:04:48;;;;;;;5.57;1.73;;;14.30;99.90;;;;;;5035602;28;20188;-70
2023/11/05 02:07:13;;;;;;;3.27;1.70;;;14.20;99.90;;;;;;5048464;28;20445;-69
2023/11/05 02:09:40;;;;;;;12.87;2.30;;;14.10;99.90;;;;;;5037758;28;20562;-69
2023/11/05 02:12:06;;;;;;;4.83;2.03;;;14.10;99.90;;;;;;5042112;28;20214;-69
2023/11/05 02:14:32;;;;;;;2.43;1.73;;;14.10;99.90;;;;;;5036468;28;20956;-69
2023/11/05 02:16:57;;;;;;;3.03;1.53;;;14.10;99.90;;;;;;5037549;28;20246;-69
2023/11/05 02:19:23;;;;;;;13.40;2.50;;;14.00;99.90;;;;;;5039136;28;20180;-69
2023/11/05 02:22:02;;;;;;;4.10;2.33;;;14.00;99.90;;;;;;5040321;28;20175;-69
2023/11/05 02:24:28;;;;;;;4.73;1.60;;;13.90;99.90;;;;;;5037692;28;20184;-69
2023/11/05 02:26:58;;;;;;;3.97;1.87;;;14.00;99.90;;;;;;5037116;28;20828;-69
2023/11/05 02:29:24;;;;;;;6.60;2.03;;;13.90;99.90;;;;;;5045311;28;20191;-69
2023/11/05 02:31:49;;;;;;;9.27;2.10;;;13.90;99.90;;;;;;5035081;28;21006;-70
2023/11/05 02:34:15;;;;;;;5.43;2.23;;;14.00;99.90;;;;;;5042484;28;20660;-69
2023/11/05 02:36:41;;;;;;;2.40;1.70;;;13.80;99.90;;;;;;5034803;28;20183;-69
2023/11/05 02:39:07;;;;;;;6.33;2.00;;;13.90;99.90;;;;;;5037354;28;20989;-70
2023/11/05 02:41:34;;;;;;;5.13;1.80;;;13.90;99.90;;;;;;5039769;28;20286;-70
2023/11/05 02:43:59;;;;;;;3.90;1.67;;;13.90;99.90;;;;;;5033053;28;20203;-69
2023/11/05 02:46:25;;;;;;;5.83;1.83;;;13.80;99.90;;;;;;5035541;28;20435;-69
2023/11/05 02:48:50;;;;;;;4.63;1.67;;;13.90;99.90;;;;;;5040276;28;20184;-69
2023/11/05 02:51:16;;;;;;;2.83;1.57;;;13.80;99.90;;;;;;5039125;28;20188;-69
2023/11/05 02:53:41;;;;;;;8.20;2.30;;;13.90;99.90;;;;;;5043194;28;20587;-69
2023/11/05 02:56:08;;;;;;;3.37;1.90;;;13.90;99.90;;;;;;5039102;28;20588;-69
2023/11/05 02:58:34;;;;;;;6.60;2.37;;;13.90;99.90;;;;;;5042427;28;20248;-69
2023/11/05 03:01:00;;;;;;;4.30;1.60;;;14.00;99.90;;;;;;5044570;28;20517;-69
2023/11/05 03:03:26;;;;;;;8.23;1.77;;;14.00;99.90;;;;;;5045312;28;20213;-69
2023/11/05 03:05:51;;;;;;;3.00;1.40;;;14.00;99.90;;;;;;5048236;28;20438;-69
2023/11/05 03:08:17;;;;;;;3.70;1.67;;;14.00;99.90;;;;;;5041978;28;20321;-69
2023/11/05 03:10:43;;;;;;;4.10;1.83;;;14.10;99.90;;;;;;5046772;28;20261;-70
2023/11/05 03:13:08;;;;;;;4.27;1.93;;;14.10;99.90;;;;;;5052211;28;20206;-70
2023/11/05 03:15:34;;;;;;;7.23;1.90;;;14.20;99.90;;;;;;5046456;28;20191;-69
2023/11/05 03:18:00;;;;;;;7.03;2.10;;;14.20;99.90;;;;;;5036940;28;20168;-70
2023/11/05 03:20:25;;;;;;;8.43;2.03;;;14.20;99.90;;;;;;5049422;28;20696;-69
2023/11/05 03:22:51;;;;;;;5.03;1.90;;;14.30;99.90;;;;;;5051131;28;20204;-71
2023/11/05 03:25:17;;;;;;;2.60;1.53;;;14.30;99.90;;;;;;5046207;28;20206;-70
2023/11/05 03:27:42;;;;;;;3.60;1.80;;;14.40;99.90;;;;;;5040280;28;20180;-70
2023/11/05 03:30:08;;;;;;;4.70;1.80;;;14.40;99.90;;;;;;5040502;28;20302;-70
2023/11/05 03:32:33;;;;;;;3.47;1.50;;;14.30;99.90;;;;;;5044693;28;20206;-69
2023/11/05 03:34:59;;;;;;;4.40;1.60;;;14.40;99.90;;;;;;5040026;28;20263;-69
2023/11/05 03:37:25;;;;;;;4.17;1.67;;;14.40;99.90;;;;;;5045125;28;20183;-69
2023/11/05 03:39:50;;;;;;;5.77;1.50;;;14.40;99.90;;;;;;5042896;28;20658;-69
2023/11/05 03:42:16;;;;;;;4.83;1.70;;;14.40;99.90;;;;;;5044861;28;20255;-69
2023/11/05 03:44:42;;;;;;;4.90;1.93;;;14.40;99.90;;;;;;5035572;28;20196;-70
2023/11/05 03:47:10;;;;;;;9.93;2.37;;;14.50;99.90;;;;;;5036905;28;20438;-69
2023/11/05 03:49:36;;;;;;;6.67;2.10;;;14.50;99.90;;;;;;5036693;28;20180;-70
2023/11/05 03:52:03;;;;;;;6.40;2.00;;;14.50;99.90;;;;;;5037037;28;20800;-70
2023/11/05 03:54:29;;;;;;;6.10;1.93;;;14.60;99.90;;;;;;5037699;28;20276;-69
2023/11/05 03:56:56;;;;;;;5.50;1.90;;;14.60;99.90;;;;;;5037708;28;20505;-69
2023/11/05 03:59:22;;;;;;;4.63;1.57;;;14.50;99.90;;;;;;5040500;28;20434;-69
2023/11/05 04:01:49;;;;;;;3.73;1.73;;;14.50;99.90;;;;;;5037417;28;20435;-70
2023/11/05 04:04:15;;;;;;;3.80;1.60;;;14.50;99.90;;;;;;5044213;28;20474;-70
2023/11/05 04:06:40;;;;;;;5.30;1.90;;;14.50;99.90;;;;;;5038648;28;20460;-70
2023/11/05 04:09:06;;;;;;;5.87;1.77;;;14.50;99.90;;;;;;5036452;28;20188;-70
2023/11/05 04:11:31;;;;;;;6.23;1.73;;;14.50;99.90;;;;;;5036579;28;20266;-70
2023/11/05 04:13:57;;;;;;;3.30;1.70;;;14.50;99.90;;;;;;5034747;28;20200;-70
2023/11/05 04:16:22;;;;;;;6.20;2.13;;;14.40;99.90;;;;;;5038171;28;20180;-70
2023/11/05 04:18:48;;;;;;;3.33;1.60;;;14.30;99.90;;;;;;5034158;28;20326;-70
2023/11/05 04:21:14;;;;;;;4.60;1.97;;;14.20;99.90;;;;;;5032305;28;20277;-70
2023/11/05 04:23:40;;;;;;;6.97;1.60;;;14.10;99.90;;;;;;5036869;28;20212;-70
2023/11/05 04:26:06;;;;;;;3.70;1.60;;;14.10;99.90;;;;;;5034441;28;20471;-70
2023/11/05 04:28:31;;;;;;;3.70;1.37;;;14.10;99.90;;;;;;5039477;28;20180;-70
2023/11/05 04:30:57;;;;;;;2.87;1.60;;;14.00;99.90;;;;;;5036432;28;20283;-70
2023/11/05 04:33:23;;;;;;;3.90;1.77;;;14.00;99.90;;;;;;5043599;28;20200;-70
2023/11/05 04:35:48;;;;;;;6.50;1.73;;;14.00;99.90;;;;;;5036003;28;20663;-70
2023/11/05 04:38:14;;;;;;;5.87;1.43;;;14.00;99.90;;;;;;5037899;28;20191;-70
2023/11/05 04:40:40;;;;;;;3.73;1.67;;;14.00;99.90;;;;;;5038072;28;20191;-70
2023/11/05 04:43:05;;;;;;;4.27;1.40;;;14.00;99.90;;;;;;5037144;28;20230;-70
2023/11/05 04:45:34;;;;;;;4.10;1.20;;;14.00;99.90;;;;;;5034861;28;20184;-70
2023/11/05 04:48:02;;;;;;;3.80;1.20;;;13.80;99.90;;;;;;5041155;28;20180;-70
2023/11/05 04:50:28;;;;;;;2.73;1.40;;;13.70;99.90;;;;;;5036924;28;20562;-70
2023/11/05 04:52:54;;;;;;;2.47;1.23;;;13.60;99.90;;;;;;5042992;28;20611;-70
2023/11/05 04:55:22;;;;;;;3.67;1.23;;;13.60;99.90;;;;;;5036409;28;20180;-70
2023/11/05 04:57:47;;;;;;;4.80;1.60;;;13.50;99.90;;;;;;5039518;28;20764;-70
2023/11/05 05:00:13;;;;;;;4.47;1.87;;;13.40;99.90;;;;;;5035657;28;20434;-70
2023/11/05 05:02:40;;;;;;;3.27;1.50;;;13.40;99.90;;;;;;5033499;28;20306;-69
2023/11/05 05:05:06;;;;;;;3.60;1.63;;;13.40;99.90;;;;;;5037675;28;20957;-69
2023/11/05 05:07:31;;;;;;;3.37;1.40;;;13.40;99.90;;;;;;5037860;28;20438;-69
2023/11/05 05:09:57;;;;;;;3.77;1.67;;;13.50;99.90;;;;;;5035377;28;20462;-69
2023/11/05 05:12:23;;;;;;;2.70;1.40;;;13.50;99.90;;;;;;5033957;28;20209;-69
2023/11/05 05:14:50;;;;;;;3.67;1.60;;;13.50;99.90;;;;;;5040095;28;20690;-70
2023/11/05 05:17:17;;;;;;;3.00;1.77;;;13.50;99.90;;;;;;5038266;28;20546;-70
2023/11/05 05:19:43;;;;;;;3.77;1.23;;;13.40;99.90;;;;;;5033551;28;20424;-70
2023/11/05 05:22:09;;;;;;;3.60;1.40;;;13.40;99.90;;;;;;5036115;28;20578;-70
2023/11/05 05:24:35;;;;;;;5.63;1.60;;;13.40;99.90;;;;;;5043133;28;20796;-70
2023/11/05 05:27:00;;;;;;;3.10;1.30;;;13.50;99.90;;;;;;5043626;28;20232;-70
2023/11/05 05:29:26;;;;;;;2.53;1.50;;;13.40;99.90;;;;;;5040320;28;20571;-70
2023/11/05 05:31:52;;;;;;;4.63;1.50;;;13.50;99.90;;;;;;5036671;28;20248;-70
2023/11/05 05:34:18;;;;;;;4.87;1.73;;;13.40;99.90;;;;;;5038470;28;20462;-70
2023/11/05 05:36:44;;;;;;;3.93;1.30;;;13.40;99.90;;;;;;5045060;28;20696;-70
2023/11/05 05:39:09;;;;;;;4.07;1.53;;;13.30;99.90;;;;;;5036746;28;20430;-70
2023/11/05 05:41:35;;;;;;;3.20;1.47;;;13.20;99.90;;;;;;5037182;28;20192;-70
2023/11/05 05:44:00;;;;;;;5.50;1.43;;;13.20;99.90;;;;;;5041231;28;20568;-70
2023/11/05 05:46:26;;;;;;;3.47;1.40;;;13.10;99.90;;;;;;5036790;28;20306;-70
2023/11/05 05:48:51;;;;;;;2.00;1.30;;;13.10;99.90;;;;;;5037886;28;20214;-70
2023/11/05 05:51:17;;;;;;;4.50;1.40;;;13.00;99.90;;;;;;5037281;28;20197;-70
2023/11/05 05:53:43;;;;;;;3.47;1.50;;;13.00;99.90;;;;;;5039992;28;20196;-70
2023/11/05 05:56:09;;;;;;;3.00;1.27;;;13.00;99.90;;;;;;5037438;28;20180;-70
2023/11/05 05:58:35;;;;;;;8.40;2.80;;;13.00;99.90;;;;;;5035832;28;20402;-70
2023/11/05 06:01:01;;;;;;;4.40;1.30;;;13.00;99.90;;;;;;5040324;28;20438;-71
2023/11/05 06:03:26;;;;;;;5.70;1.63;;;13.10;99.90;;;;;;5039982;28;20461;-71
2023/11/05 06:05:52;;;;;;;4.73;1.27;;;13.10;99.90;;;;;;5038980;28;20208;-71
2023/11/05 06:08:18;;;;;;;3.50;1.40;;;13.10;99.90;;;;;;5050464;28;20218;-70
2023/11/05 06:10:44;;;;;;;2.67;1.00;;;13.10;99.90;;;;;;5041686;28;20253;-70
2023/11/05 06:13:09;;;;;;;2.90;1.30;;;13.10;99.90;;;;;;5041364;28;20198;-70
2023/11/05 06:15:35;;;;;;;3.20;1.10;;;13.00;99.90;;;;;;5034913;28;20430;-70
2023/11/05 06:18:01;;;;;;;2.57;1.10;;;13.00;99.90;;;;;;5043800;28;20234;-70
2023/11/05 06:20:27;;;;;;;1.97;1.20;;;13.00;99.90;;;;;;5040995;28;20453;-70
2023/11/05 06:22:54;;;;;;;3.30;1.20;;;13.00;99.90;;;;;;5040514;28;20453;-70
2023/11/05 06:25:20;;;;;;;2.87;1.23;;;12.90;99.90;;;;;;5037249;28;20275;-70
2023/11/05 06:27:45;;;;;;;3.13;1.20;;;12.90;99.90;;;;;;5041172;28;21008;-70
2023/11/05 06:30:13;;;;;;;2.67;1.27;;;12.80;99.90;;;;;;5038652;28;20178;-70
2023/11/05 06:32:39;;;;;;;2.40;1.30;;;12.80;99.90;;;;;;5038704;28;20700;-71
2023/11/05 06:35:05;;;;;;;2.70;1.57;;;12.80;99.90;;;;;;5036468;28;20462;-70
2023/11/05 06:37:31;;;;;;;2.40;1.50;;;12.80;99.90;;;;;;5040890;28;20270;-69
2023/11/05 06:40:00;;;;;;;1.80;1.00;;;12.70;99.90;;;;;;5042962;28;20641;-69
2023/11/05 06:42:26;;;;;;;8.60;1.53;;;12.60;99.90;;;;;;5040921;28;20204;-69
2023/11/05 06:44:52;;;;;;;3.93;1.20;;;12.60;99.90;;;;;;5041247;28;20646;-69
2023/11/05 06:47:17;;;;;;;3.97;1.30;;;12.50;99.90;;;;;;5041498;28;20182;-69
2023/11/05 06:49:43;;;;;;;2.07;1.00;;;12.50;99.90;;;;;;5039358;28;20215;-70
2023/11/05 06:52:08;;;;;;;2.57;1.20;;;12.50;99.90;;;;;;5040069;28;20590;-69
2023/11/05 06:54:34;;;;;;;3.00;1.43;;;12.40;99.90;;;;;;5038393;28;20194;-70
2023/11/05 06:57:03;;;;;;;4.30;1.20;;;12.40;99.90;;;;;;5039010;28;20177;-69
2023/11/05 06:59:29;;;;;;;2.60;1.10;;;12.30;99.90;;;;;;5038355;28;20169;-69
2023/11/05 07:01:54;;;;;;;3.27;1.23;;;12.30;99.90;;;;;;5035604;28;20522;-69
2023/11/05 07:04:21;;;;;;;2.90;1.30;;;12.30;99.90;;;;;;5040276;28;20585;-70
2023/11/05 07:06:47;;;;;;;3.60;1.07;;;12.30;99.90;;;;;;5033898;28;20179;-69
2023/11/05 07:09:15;;;;;;;1.70;1.00;;;12.30;99.90;;;;;;5038199;28;20883;-69
2023/11/05 07:11:40;;;;;;;1.90;1.20;;;12.30;99.90;;;;;;5041908;28;20886;-70
2023/11/05 07:14:06;;;;;;;2.30;1.13;;;12.40;99.90;;;;;;5040955;28;20487;-69
2023/11/05 07:16:32;;;;;;;1.83;1.10;;;12.40;99.90;;;;;;5036263;28;20181;-69
2023/11/05 07:18:58;;;;;;;2.77;1.37;;;12.40;99.90;;;;;;5035805;28;20959;-69
2023/11/05 07:21:24;;;;;;;4.30;1.23;;;12.30;99.90;;;;;;5031302;28;20180;-69
2023/11/05 07:23:49;;;;;;;2.47;1.17;;;12.30;99.90;;;;;;5041666;28;20203;-70
2023/11/05 07:26:15;;;;;;;2.00;1.10;;;12.30;99.90;;;;;;5043148;28;20234;-69
2023/11/05 07:28:42;;;;;;;1.80;1.10;;;12.40;99.90;;;;;;5036018;28;21000;-70
2023/11/05 07:31:08;;;;;;;2.50;1.10;;;12.40;99.90;;;;;;5038690;28;20223;-70
2023/11/05 07:33:34;;;;;;;2.13;1.20;;;12.50;99.90;;;;;;5039873;28;20999;-70
2023/11/05 07:36:00;;;;;;;3.10;1.30;;;12.60;99.90;;;;;;5034403;28;20401;-70
2023/11/05 07:38:26;;;;;;;10.03;1.50;;;12.60;99.90;;;;;;5037781;28;20498;-70
2023/11/05 07:40:53;;;;;;;1.60;1.00;;;12.70;99.90;;;;;;5036727;28;20545;-70
2023/11/05 07:43:18;;;;;;;2.60;1.20;;;12.70;99.90;;;;;;5036261;28;20204;-71
2023/11/05 07:45:44;;;;;;;4.43;1.33;;;12.70;99.90;;;;;;5031296;28;20521;-70
2023/11/05 07:48:09;;;;;;;1.70;1.10;;;12.80;99.90;;;;;;5038404;28;20189;-70
2023/11/05 07:50:35;;;;;;;4.50;1.13;;;12.90;99.90;;;;;;5033717;28;20203;-70
2023/11/05 07:53:00;;;;;;;3.40;1.10;;;12.90;99.90;;;;;;5035640;28;20196;-70
2023/11/05 07:55:27;;;;;;;2.50;1.00;;;12.80;99.90;;;;;;5016547;28;20669;-70
2023/11/05 07:57:52;;;;;;;6.63;2.00;;;12.80;99.90;;;;;;5037775;28;20605;-70
2023/11/05 08:00:18;;;;;;;3.83;1.10;;;12.70;99.90;;;;;;5036880;28;20411;-70
2023/11/05 08:02:45;;;;;;;2.17;1.40;;;12.70;99.90;;;;;;5036831;28;20195;-69
2023/11/05 08:05:11;;;;;;;2.47;1.30;;;12.70;99.90;;;;;;5039385;28;20183;-71
2023/11/05 08:07:36;;;;;;;2.10;1.40;;;12.60;99.90;;;;;;5032206;28;20419;-70
2023/11/05 08:10:06;;;;;;;3.40;1.47;;;12.60;99.90;;;;;;5044263;28;20806;-70
2023/11/05 08:12:32;;;;;;;3.50;2.00;;;12.60;99.90;;;;;;5036556;28;20294;-70
2023/11/05 08:14:58;;;;;;;2.33;1.43;;;12.60;99.90;;;;;;5036053;28;20438;-70
2023/11/05 08:17:24;;;;;;;1.80;1.20;;;12.60;99.90;;;;;;5039410;28;20421;-71
2023/11/05 08:19:50;;;;;;;3.33;1.57;;;12.70;99.90;;;;;;5037974;28;20306;-72
2023/11/05 08:22:16;;;;;;;4.03;1.20;;;12.70;99.90;;;;;;5043913;28;20748;-71
2023/11/05 08:24:43;;;;;;;4.00;1.73;;;12.80;99.90;;;;;;5041689;28;20429;-71
2023/11/05 08:27:10;;;;;;;3.13;1.20;;;12.80;99.90;;;;;;5037928;28;20846;-70
2023/11/05 08:29:36;;;;;;;6.90;1.23;;;12.80;99.90;;;;;;5036156;28;20442;-71
2023/11/05 08:32:01;;;;;;;3.50;1.30;;;12.90;99.90;;;;;;5037920;28;20518;-71
2023/11/05 08:34:27;;;;;;;1.73;1.03;;;12.90;99.90;;;;;;5037390;28;20431;-69
2023/11/05 08:36:54;;;;;;;2.67;1.17;;;12.90;99.90;;;;;;5039313;28;20172;-70
2023/11/05 08:39:20;;;;;;;4.13;1.27;;;12.90;99.90;;;;;;5042714;28;20208;-70
2023/11/05 08:41:46;;;;;;;2.77;1.30;;;12.80;99.90;;;;;;5040092;28;20418;-70
2023/11/05 08:44:11;;;;;;;1.70;1.10;;;13.00;99.90;;;;;;5038318;28;20461;-69
2023/11/05 08:46:37;;;;;;;1.90;1.10;;;13.00;99.90;;;;;;5043430;28;20222;-70
2023/11/05 08:49:03;;;;;;;2.20;1.23;;;13.10;99.90;;;;;;5039680;28;20233;-71
2023/11/05 08:51:30;;;;;;;2.57;1.07;;;13.10;99.90;;;;;;5042640;28;20329;-69
2023/11/05 08:53:56;;;;;;;5.13;1.33;;;13.20;99.90;;;;;;5041934;28;20196;-70
2023/11/05 08:56:22;;;;;;;2.20;1.27;;;13.20;99.90;;;;;;5042722;28;20465;-70
2023/11/05 08:58:49;;;;;;;2.20;1.30;;;13.20;99.90;;;;;;5047684;28;20258;-70
2023/11/05 09:01:16;;;;;;;3.30;1.10;;;13.30;99.90;;;;;;5037130;28;20425;-69
2023/11/05 09:03:43;;;;;;;6.77;1.53;;;13.30;99.90;;;;;;5034147;28;20509;-70
2023/11/05 09:06:09;;;;;;;2.00;1.20;;;13.40;99.90;;;;;;5038542;28;20427;-70
2023/11/05 09:08:38;;;;;;;2.17;1.20;;;13.40;99.90;;;;;;5040115;28;20441;-70
2023/11/05 09:11:07;;;;;;;2.47;1.20;;;13.30;99.90;;;;;;5040299;28;20608;-71
2023/11/05 09:13:33;;;;;;;3.23;1.20;;;13.30;99.90;;;;;;5038463;28;20945;-70
2023/11/05 09:15:58;;;;;;;2.67;1.30;;;13.30;99.90;;;;;;5040395;28;20532;-69
2023/11/05 09:18:24;;;;;;;2.63;1.30;;;13.30;99.90;;;;;;5043771;28;20422;-70
2023/11/05 09:20:50;;;;;;;5.57;1.20;;;13.40;99.90;;;;;;5041941;28;20255;-70
2023/11/05 09:23:16;;;;;;;1.90;1.10;;;13.30;99.90;;;;;;5039819;28;20469;-70
2023/11/05 09:25:42;;;;;;;2.77;1.40;;;13.30;99.90;;;;;;5038059;28;20516;-71
2023/11/05 09:28:08;;;;;;;1.70;1.00;;;13.30;99.90;;;;;;5041569;28;20188;-70
2023/11/05 09:30:34;;;;;;;2.97;1.20;;;13.40;99.90;;;;;;5039479;28;20678;-70
2023/11/05 09:33:00;;;;;;;2.47;1.27;;;13.30;99.90;;;;;;5038839;28;20202;-70
2023/11/05 09:35:25;;;;;;;2.77;1.27;;;13.40;99.90;;;;;;5039747;28;20431;-70
2023/11/05 09:37:51;;;;;;;3.27;1.20;;;13.30;99.90;;;;;;5040628;28;20434;-70
2023/11/05 09:40:17;;;;;;;2.03;1.20;;;13.30;99.90;;;;;;5041272;28;20206;-70
2023/11/05 09:43:01;;;;;;;2.27;1.20;;;13.40;99.90;;;;;;5037996;28;20215;-70
2023/11/05 09:45:28;;;;;;;2.27;1.30;;;13.40;99.90;;;;;;5038977;28;20188;-70
2023/11/05 09:47:55;;;;;;;3.50;1.50;;;13.50;99.90;;;;;;5034715;28;20465;-70
2023/11/05 09:50:21;;;;;;;2.23;1.23;;;13.50;99.90;;;;;;5041090;28;20406;-70
2023/11/05 09:52:47;;;;;;;4.40;1.30;;;13.50;99.90;;;;;;5039791;28;20958;-72
2023/11/05 09:55:12;;;;;;;4.03;1.20;;;13.40;99.90;;;;;;5036424;28;21297;-70
2023/11/05 09:57:38;;;;;;;2.30;1.17;;;13.40;99.90;;;;;;5041080;28;20867;-70
2023/11/05 10:00:09;;;;;;;2.43;1.20;;;13.20;99.90;;;;;;5035884;28;20188;-70
2023/11/05 10:02:55;;;;;;;2.80;1.20;;;13.20;99.90;;;;;;5039810;28;20676;-69
2023/11/05 10:05:21;;;;;;;2.83;1.40;;;13.20;99.90;;;;;;5038774;28;20430;-71
2023/11/05 10:07:48;;;;;;;2.60;1.30;;;13.20;99.90;;;;;;5037277;28;20415;-70
2023/11/05 10:10:15;;;;;;;2.77;1.20;;;13.10;99.90;;;;;;5041636;28;20422;-70
2023/11/05 10:12:41;;;;;;;2.70;1.37;;;13.10;99.90;;;;;;5033521;28;20454;-70
2023/11/05 10:15:07;;;;;;;2.33;1.20;;;13.10;99.90;;;;;;5037508;28;20426;-70
2023/11/05 10:17:33;;;;;;;3.20;1.50;;;13.10;99.90;;;;;;5038470;28;20393;-70
2023/11/05 10:19:59;;;;;;;3.33;1.90;;;13.00;99.90;;;;;;5036179;28;20434;-70
2023/11/05 10:22:25;;;;;;;2.00;1.10;;;13.00;99.90;;;;;;5038086;28;20222;-70
2023/11/05 10:24:51;;;;;;;2.30;1.33;;;13.00;99.90;;;;;;5037648;28;20188;-70
2023/11/05 10:27:27;;;;;;;3.93;1.40;;;13.00;99.90;;;;;;5030734;28;20737;-71
2023/11/05 10:29:56;;;;;;;2.37;1.33;;;13.00;99.90;;;;;;5035019;28;20432;-69
2023/11/05 10:32:27;;;;;;;3.10;1.53;;;12.90;99.90;;;;;;5035233;28;21002;-69
2023/11/05 10:34:55;;;;;;;1.93;1.20;;;12.90;99.90;;;;;;5034902;28;20423;-70
2023/11/05 10:37:21;;;;;;;1.60;1.00;;;12.90;99.90;;;;;;5040360;28;20430;-71
2023/11/05 10:39:47;;;;;;;1.50;0.90;;;12.70;99.90;;;;;;5037262;28;20758;-69
2023/11/05 10:42:14;;;;;;;1.90;1.03;;;12.70;99.90;;;;;;5037674;28;20175;-69
2023/11/05 10:44:45;;;;;;;3.27;1.20;;;12.80;99.90;;;;;;5036812;28;20520;-69
2023/11/05 10:47:11;;;;;;;2.57;1.10;;;12.60;99.90;;;;;;5038025;28;20436;-70
2023/11/05 10:49:38;;;;;;;1.80;1.17;;;12.60;99.90;;;;;;5040565;28;20488;-70
2023/11/05 10:52:06;;;;;;;2.30;1.40;;;12.60;99.90;;;;;;5055258;28;20472;-71
2023/11/05 10:54:33;;;;;;;2.30;1.20;;;12.50;99.90;;;;;;5038960;28;21033;-70
2023/11/05 10:56:59;;;;;;;3.47;1.27;;;12.50;99.90;;;;;;5037619;28;20422;-70
2023/11/05 10:59:37;;;;;;;2.53;1.43;;;12.60;99.90;;;;;;5036853;28;21027;-70
2023/11/05 11:02:05;;;;;;;3.00;1.40;;;12.60;99.90;;;;;;5037253;28;20194;-70
2023/11/05 11:04:31;;;;;;;2.77;1.10;;;12.70;99.90;;;;;;5038966;28;20430;-70
2023/11/05 11:06:57;;;;;;;4.43;2.30;;;12.90;99.90;;;;;;5038596;28;20418;-70
2023/11/05 11:09:24;;;;;;;2.03;1.10;;;13.00;99.90;;;;;;5033837;28;20200;-70
2023/11/05 11:11:52;;;;;;;3.70;1.60;;;13.00;99.90;;;;;;5035763;28;20204;-69
2023/11/05 11:14:19;;;;;;;3.70;2.47;;;13.00;99.90;;;;;;5038270;28;20495;-69
2023/11/05 11:16:45;;;;;;;2.17;1.37;;;12.80;99.90;;;;;;5034253;28;20465;-69
2023/11/05 11:19:13;;;;;;;2.73;1.47;;;12.80;99.90;;;;;;5033430;28;20642;-69
2023/11/05 11:21:45;;;;;;;2.30;1.20;;;12.90;99.90;;;;;;5036940;28;20423;-69
2023/11/05 11:24:29;;;;;;;1.80;1.10;;;13.00;99.90;;;;;;5042251;28;20471;-70
2023/11/05 11:27:00;;;;;;;7.73;1.77;;;13.20;99.90;;;;;;5039919;28;20461;-70
2023/11/05 11:29:26;;;;;;;2.80;1.50;;;13.20;99.90;;;;;;5039865;28;20436;-70
2023/11/05 11:31:51;;;;;;;3.87;1.40;;;13.30;99.90;;;;;;5038564;28;20913;-70
2023/11/05 11:34:21;;;;;;;3.03;1.40;;;13.40;99.90;;;;;;5037232;28;20632;-70
2023/11/05 11:37:01;;;;;;;3.50;1.30;;;13.50;99.90;;;;;;5042498;28;20186;-70
2023/11/05 11:39:28;;;;;;;2.40;1.43;;;13.30;99.90;;;;;;5038156;28;20416;-70
2023/11/05 11:41:54;;;;;;;3.00;1.57;;;13.40;99.90;;;;;;5041488;28;21106;-70
2023/11/05 11:44:20;;;;;;;3.23;1.30;;;13.30;99.90;;;;;;5037799;28;20458;-70
2023/11/05 11:46:47;;;;;;;1.60;1.00;;;13.40;99.90;;;;;;5037412;28;20453;-70
2023/11/05 11:49:13;;;;;;;2.10;1.30;;;13.40;99.90;;;;;;5039718;28;20442;-70
2023/11/05 11:51:39;;;;;;;1.87;1.30;;;13.30;99.90;;;;;;5036915;28;20502;-70
2023/11/05 11:54:06;;;;;;;2.43;1.20;;;13.30;99.90;;;;;;5037892;28;20537;-71
2023/11/05 11:56:31;;;;;;;2.17;1.53;;;13.40;99.90;;;;;;5041549;28;20436;-69
2023/11/05 11:59:04;;;;;;;3.43;1.70;;;13.40;99.90;;;;;;5042457;28;20500;-69
2023/11/05 12:01:30;;;;;;;1.90;1.23;;;13.50;99.90;;;;;;5042558;28;20218;-69
2023/11/05 12:03:57;;;;;;;2.83;1.30;;;13.60;99.90;;;;;;5040993;28;20478;-69
2023/11/05 12:06:23;;;;;;;2.40;1.53;;;13.50;99.90;;;;;;5042778;28;20427;-69
2023/11/05 12:08:49;;;;;;;3.30;1.50;;;13.70;99.90;;;;;;5045156;28;20816;-69
2023/11/05 12:11:16;;;;;;;3.33;1.60;;;13.60;99.90;;;;;;5043761;28;20212;-70
2023/11/05 12:13:42;;;;;;;3.03;1.70;;;13.70;99.90;;;;;;5046308;28;20462;-70
2023/11/05 12:16:11;;;;;;;2.20;1.10;;;13.70;99.90;;;;;;5043041;28;20504;-69
2023/11/05 12:18:38;;;;;;;3.00;1.50;;;13.70;99.90;;;;;;5041762;28;20983;-69
2023/11/05 12:21:06;;;;;;;2.80;1.43;;;13.60;99.90;;;;;;5043328;28;20419;-69
2023/11/05 12:23:32;;;;;;;2.70;1.30;;;13.70;99.90;;;;;;5042547;28;20495;-69
2023/11/05 12:26:05;;;;;;;3.20;1.00;;;13.70;99.90;;;;;;5039193;28;20429;-69
2023/11/05 12:28:31;;;;;;;2.27;1.30;;;13.60;99.90;;;;;;5045637;28;20175;-69
2023/11/05 12:31:06;;;;;;;2.30;1.53;;;13.60;99.90;;;;;;5044052;28;20492;-70
2023/11/05 12:33:39;;;;;;;1.53;1.00;;;13.70;99.90;;;;;;5044503;28;20457;-69
2023/11/05 12:36:06;;;;;;;2.00;1.10;;;13.70;99.90;;;;;;5041905;28;20952;-70
2023/11/05 12:38:32;;;;;;;2.40;1.60;;;13.80;99.90;;;;;;5045861;28;20410;-70
2023/11/05 12:40:57;;;;;;;2.53;1.30;;;13.90;99.90;;;;;;5042599;28;20434;-70